Time;durP1;ratioP1;P1;durP2;ratioP2;P2;SDS_P1;SDS_P2;PMS_P1;PMS_P2;Temp;Humidity;BMP_temperature;BMP_pressure;BME280_temperature;BME280_humidity;BME280_pressure;Samples;Min_cycle;Max_cycle;Signal;HPM_P1;HPM_P2
2022/04/27 00:00:34;;;;;;;12.63;5.70;;;4.20;99.90;;;;;;4997230;28;20515;-78
2022/04/27 00:03:04;;;;;;;7.17;5.30;;;4.20;99.90;;;;;;4994928;28;20045;-78
2022/04/27 00:05:30;;;;;;;9.83;5.17;;;4.20;99.90;;;;;;4976258;28;20045;-78
2022/04/27 00:07:56;;;;;;;9.83;5.57;;;4.10;99.90;;;;;;4978614;28;20462;-78
2022/04/27 00:10:22;;;;;;;10.23;5.80;;;4.10;99.90;;;;;;4997474;28;20117;-78
2022/04/27 00:12:48;;;;;;;8.43;5.47;;;4.10;99.90;;;;;;4993547;28;20301;-78
2022/04/27 00:15:15;;;;;;;8.50;5.43;;;4.10;99.90;;;;;;4979137;28;20132;-79
2022/04/27 00:17:41;;;;;;;8.87;5.13;;;4.00;99.90;;;;;;5010181;28;20034;-79
2022/04/27 00:20:08;;;;;;;9.83;5.37;;;4.00;99.90;;;;;;4997537;28;20034;-78
2022/04/27 00:22:36;;;;;;;7.90;5.13;;;4.00;99.90;;;;;;4993599;28;20073;-79
2022/04/27 00:25:06;;;;;;;11.83;6.00;;;4.00;99.90;;;;;;4981605;28;20117;-78
2022/04/27 00:27:32;;;;;;;8.53;5.37;;;4.00;99.90;;;;;;5001966;28;20049;-78
2022/04/27 00:29:59;;;;;;;7.97;5.33;;;4.00;99.90;;;;;;4980563;28;20096;-79
2022/04/27 00:32:25;;;;;;;8.33;5.10;;;4.00;99.90;;;;;;4977753;28;20042;-78
2022/04/27 00:34:51;;;;;;;8.47;4.70;;;3.90;99.90;;;;;;5019832;28;20124;-79
2022/04/27 00:37:18;;;;;;;8.87;5.37;;;3.90;99.90;;;;;;5001159;28;20041;-78
2022/04/27 00:39:47;;;;;;;9.70;5.27;;;3.90;99.90;;;;;;4994527;28;20390;-78
2022/04/27 00:42:17;;;;;;;7.63;5.03;;;3.90;99.90;;;;;;4977841;28;20120;-78
2022/04/27 00:44:44;;;;;;;9.53;5.37;;;3.90;99.90;;;;;;4976421;28;20104;-78
2022/04/27 00:47:10;;;;;;;7.67;5.23;;;3.90;99.90;;;;;;4992272;28;20073;-78
2022/04/27 00:49:40;;;;;;;8.97;5.70;;;3.80;99.90;;;;;;4992260;28;20102;-78
2022/04/27 00:52:06;;;;;;;7.50;5.30;;;3.80;99.90;;;;;;4973681;28;20428;-78
2022/04/27 00:54:33;;;;;;;7.87;5.67;;;3.70;99.90;;;;;;4960048;28;20046;-78
2022/04/27 00:56:58;;;;;;;7.53;5.80;;;3.70;99.90;;;;;;4992754;28;20050;-79
2022/04/27 00:59:24;;;;;;;9.33;5.60;;;3.60;99.90;;;;;;4996038;28;20049;-79
2022/04/27 01:01:50;;;;;;;8.63;5.57;;;3.60;99.90;;;;;;4976465;28;20038;-79
2022/04/27 01:04:15;;;;;;;9.93;6.10;;;3.60;99.90;;;;;;4994647;28;20129;-78
2022/04/27 01:06:41;;;;;;;11.03;6.07;;;3.50;99.90;;;;;;4978751;28;20034;-78
2022/04/27 01:09:07;;;;;;;8.40;5.97;;;3.40;99.90;;;;;;4992450;28;20125;-79
2022/04/27 01:11:33;;;;;;;9.43;5.80;;;3.40;99.90;;;;;;4976212;28;20038;-79
2022/04/27 01:13:59;;;;;;;8.57;5.77;;;3.30;99.90;;;;;;4996256;28;20050;-79
2022/04/27 01:16:25;;;;;;;8.67;5.90;;;3.30;99.90;;;;;;4980551;28;20378;-79
2022/04/27 01:18:51;;;;;;;9.00;5.43;;;3.20;99.90;;;;;;4976652;28;20120;-79
2022/04/27 01:21:17;;;;;;;8.87;6.20;;;3.10;99.90;;;;;;4992991;28;20677;-79
2022/04/27 01:23:43;;;;;;;11.17;5.80;;;3.20;99.90;;;;;;4979864;28;20034;-79
2022/04/27 01:26:09;;;;;;;9.07;5.77;;;3.10;99.90;;;;;;4978155;28;20057;-78
2022/04/27 01:28:37;;;;;;;9.97;6.17;;;3.10;99.90;;;;;;4998994;28;20034;-78
2022/04/27 01:31:10;;;;;;;12.23;6.57;;;3.10;99.90;;;;;;4988881;28;20145;-79
2022/04/27 01:33:36;;;;;;;9.53;6.17;;;3.10;99.90;;;;;;4996972;28;20064;-78
2022/04/27 01:36:07;;;;;;;8.23;6.13;;;3.20;99.90;;;;;;4995336;28;20096;-79
2022/04/27 01:38:34;;;;;;;8.27;5.90;;;3.10;99.90;;;;;;4998611;28;20551;-78
2022/04/27 01:40:59;;;;;;;11.47;5.93;;;3.10;99.90;;;;;;4980143;28;20092;-78
2022/04/27 01:43:25;;;;;;;9.43;6.20;;;3.20;99.90;;;;;;4964479;28;20040;-78
2022/04/27 01:45:51;;;;;;;11.20;6.67;;;3.20;99.90;;;;;;4999709;28;20478;-78
2022/04/27 01:48:17;;;;;;;8.67;6.30;;;3.20;99.90;;;;;;4987869;28;20116;-79
2022/04/27 01:50:43;;;;;;;9.43;6.60;;;3.20;99.90;;;;;;4978860;28;20653;-78
2022/04/27 01:55:53;;;;;;;10.80;7.20;;;3.20;99.90;;;;;;4996629;28;20095;-78
2022/04/27 01:58:19;;;;;;;10.87;7.27;;;3.30;99.90;;;;;;4980428;28;20065;-79
2022/04/27 02:00:48;;;;;;;11.23;6.93;;;3.30;99.90;;;;;;4984620;28;20478;-79
2022/04/27 02:03:15;;;;;;;17.30;7.87;;;3.30;99.90;;;;;;5017215;28;20129;-78
2022/04/27 02:05:41;;;;;;;11.20;6.90;;;3.30;99.90;;;;;;5001269;28;20041;-77
2022/04/27 02:08:07;;;;;;;11.87;7.27;;;3.40;99.90;;;;;;4964411;28;20041;-78
2022/04/27 02:10:34;;;;;;;13.53;8.53;;;3.30;99.90;;;;;;4965255;28;20392;-79
2022/04/27 02:13:05;;;;;;;12.47;8.07;;;3.40;99.90;;;;;;4978813;28;20125;-78
2022/04/27 02:15:31;;;;;;;11.90;7.90;;;3.50;99.90;;;;;;4982518;28;20038;-79
2022/04/27 02:17:56;;;;;;;12.97;8.23;;;3.50;99.90;;;;;;4997277;28;20050;-78
2022/04/27 02:20:23;;;;;;;13.70;8.13;;;3.60;99.90;;;;;;4997941;28;20042;-78
2022/04/27 02:22:50;;;;;;;11.30;7.47;;;3.70;99.90;;;;;;4996658;28;20076;-78
2022/04/27 02:25:17;;;;;;;11.97;7.80;;;3.70;99.90;;;;;;4964261;28;20608;-79
2022/04/27 02:27:43;;;;;;;12.30;7.70;;;3.70;99.90;;;;;;4997358;28;20125;-78
2022/04/27 02:30:10;;;;;;;13.43;8.23;;;3.80;99.90;;;;;;4980304;28;20069;-79
2022/04/27 02:32:36;;;;;;;15.40;8.30;;;3.80;99.90;;;;;;4999237;28;20034;-78
2022/04/27 02:35:03;;;;;;;11.57;7.20;;;3.80;99.90;;;;;;4980548;28;20547;-79
2022/04/27 02:37:30;;;;;;;15.03;9.03;;;3.80;99.90;;;;;;5003458;28;20504;-78
2022/04/27 02:39:57;;;;;;;14.13;9.13;;;3.80;99.90;;;;;;4979569;28;20038;-79
2022/04/27 02:42:23;;;;;;;13.73;8.87;;;3.90;99.90;;;;;;5011319;28;20038;-79
2022/04/27 02:44:49;;;;;;;14.50;9.60;;;3.90;99.90;;;;;;4979758;28;20041;-78
2022/04/27 02:47:15;;;;;;;16.30;10.13;;;3.90;99.90;;;;;;4998478;28;20054;-79
2022/04/27 02:52:26;;;;;;;14.67;9.73;;;4.10;99.90;;;;;;4984217;28;20037;-79
2022/04/27 02:54:51;;;;;;;16.03;9.37;;;4.10;99.90;;;;;;4999137;28;20401;-79
2022/04/27 02:57:17;;;;;;;13.60;8.83;;;4.10;99.90;;;;;;4979149;28;20034;-79
2022/04/27 02:59:44;;;;;;;13.57;8.90;;;4.20;99.90;;;;;;4996625;28;20122;-78
2022/04/27 03:02:10;;;;;;;14.37;9.10;;;4.20;99.90;;;;;;4964095;28;20559;-79
2022/04/27 03:04:35;;;;;;;15.10;9.57;;;4.20;99.90;;;;;;4995076;28;20046;-78
2022/04/27 03:07:02;;;;;;;17.17;9.97;;;4.30;99.90;;;;;;4984033;28;20034;-79
2022/04/27 03:09:29;;;;;;;18.00;10.00;;;4.30;99.90;;;;;;4983625;28;20516;-79
2022/04/27 03:11:55;;;;;;;16.97;10.00;;;4.30;99.90;;;;;;4981312;28;20370;-79
2022/04/27 03:14:21;;;;;;;17.67;10.63;;;4.30;99.90;;;;;;5002571;28;20042;-79
2022/04/27 03:16:47;;;;;;;17.73;9.77;;;4.40;99.90;;;;;;4996382;28;20073;-79
2022/04/27 03:19:13;;;;;;;13.57;9.63;;;4.40;99.90;;;;;;5011729;28;20076;-79
2022/04/27 03:21:39;;;;;;;15.17;9.53;;;4.40;99.90;;;;;;4997764;28;20088;-79
2022/04/27 03:24:05;;;;;;;13.87;9.70;;;4.50;99.90;;;;;;4978300;28;20517;-79
2022/04/27 03:26:31;;;;;;;20.03;10.00;;;4.40;99.90;;;;;;4976606;28;20519;-79
2022/04/27 03:28:58;;;;;;;17.67;9.33;;;4.50;99.90;;;;;;4997086;28;20130;-79
2022/04/27 03:31:24;;;;;;;16.80;10.17;;;4.50;99.90;;;;;;5010733;28;20042;-79
2022/04/27 03:33:49;;;;;;;18.50;10.07;;;4.50;99.90;;;;;;4984285;28;20043;-81
2022/04/27 03:36:15;;;;;;;16.57;10.40;;;4.50;99.90;;;;;;4998079;28;20037;-81
2022/04/27 03:38:43;;;;;;;17.73;10.40;;;4.60;99.90;;;;;;5012143;28;20046;-81
2022/04/27 03:41:09;;;;;;;17.13;10.67;;;4.60;99.90;;;;;;5008870;28;20445;-81
2022/04/27 03:43:35;;;;;;;18.60;10.37;;;4.60;99.90;;;;;;4995218;28;20049;-78
2022/04/27 03:46:01;;;;;;;14.33;9.70;;;4.70;99.90;;;;;;4995113;28;20116;-78
2022/04/27 03:48:26;;;;;;;14.23;9.03;;;4.70;99.90;;;;;;4995236;28;20125;-78
2022/04/27 03:50:52;;;;;;;15.57;9.30;;;4.70;99.90;;;;;;4962350;28;20144;-79
2022/04/27 03:53:18;;;;;;;15.47;9.37;;;4.70;99.90;;;;;;4979306;28;20696;-78
2022/04/27 03:55:44;;;;;;;16.03;10.10;;;4.70;99.90;;;;;;4977892;28;20103;-79
2022/04/27 03:58:10;;;;;;;18.73;10.30;;;4.70;99.90;;;;;;4975264;28;20132;-79
2022/04/27 04:00:35;;;;;;;15.67;9.63;;;4.70;99.90;;;;;;4981578;28;20389;-79
2022/04/27 04:03:03;;;;;;;14.80;9.37;;;4.80;99.90;;;;;;4977981;28;20100;-79
2022/04/27 04:05:30;;;;;;;19.17;10.03;;;4.80;99.90;;;;;;4978342;28;20120;-78
2022/04/27 04:07:59;;;;;;;16.33;9.27;;;4.80;99.90;;;;;;4994172;28;20048;-79
2022/04/27 04:10:25;;;;;;;15.83;9.43;;;4.80;99.90;;;;;;4981060;28;20099;-78
2022/04/27 04:12:50;;;;;;;17.17;9.50;;;4.80;99.90;;;;;;4982998;28;20128;-79
2022/04/27 04:15:16;;;;;;;17.33;9.47;;;4.90;99.90;;;;;;4977541;28;20044;-78
2022/04/27 04:17:45;;;;;;;15.97;9.57;;;4.90;99.90;;;;;;4999999;28;20120;-78
2022/04/27 04:20:13;;;;;;;16.20;9.57;;;4.90;99.90;;;;;;4972991;28;20080;-79
2022/04/27 04:22:39;;;;;;;19.57;10.07;;;4.90;99.90;;;;;;4981781;28;20205;-79
2022/04/27 04:30:34;;;;;;;18.50;10.80;;;5.00;99.90;;;;;;4998895;28;20041;-82
2022/04/27 04:33:00;;;;;;;13.90;9.33;;;5.00;99.90;;;;;;5007380;28;20492;-82
2022/04/27 04:35:26;;;;;;;13.87;9.47;;;5.00;99.90;;;;;;5005911;28;20049;-82
2022/04/27 04:37:52;;;;;;;15.60;9.83;;;5.10;99.90;;;;;;4971442;28;20040;-82
2022/04/27 04:40:18;;;;;;;18.33;10.27;;;5.10;99.90;;;;;;4983940;28;20042;-81
2022/04/27 04:42:43;;;;;;;15.00;10.13;;;5.20;99.90;;;;;;4966009;28;20103;-80
2022/04/27 04:45:09;;;;;;;16.43;9.27;;;5.10;99.90;;;;;;4982279;28;20044;-80
2022/04/27 04:47:35;;;;;;;17.27;10.13;;;5.20;99.90;;;;;;4982572;28;20072;-81
2022/04/27 04:50:00;;;;;;;15.10;9.30;;;5.20;99.90;;;;;;4977693;28;20048;-82
2022/04/27 04:52:27;;;;;;;17.40;9.70;;;5.20;99.90;;;;;;5009495;28;20408;-78
2022/04/27 04:54:53;;;;;;;20.53;9.37;;;5.20;99.90;;;;;;4993285;28;20049;-79
2022/04/27 04:57:18;;;;;;;19.17;10.50;;;5.30;99.90;;;;;;4994211;28;20058;-78
2022/04/27 04:59:44;;;;;;;16.37;10.33;;;5.30;99.90;;;;;;4994896;28;20603;-79
2022/04/27 05:02:10;;;;;;;23.67;9.57;;;5.30;99.90;;;;;;4999859;28;20130;-79
2022/04/27 05:04:36;;;;;;;17.27;9.97;;;5.40;99.90;;;;;;4984000;28;20049;-79
2022/04/27 05:07:02;;;;;;;20.57;10.40;;;5.40;99.90;;;;;;5013292;28;20726;-79
2022/04/27 05:09:28;;;;;;;14.93;9.77;;;5.50;99.90;;;;;;4982576;28;20042;-77
2022/04/27 05:11:53;;;;;;;21.53;10.13;;;5.50;99.90;;;;;;4996019;28;20139;-77
2022/04/27 05:14:19;;;;;;;14.83;9.87;;;5.50;99.90;;;;;;4991164;28;20046;-77
2022/04/27 05:16:45;;;;;;;16.07;10.00;;;5.50;99.90;;;;;;4973500;28;20117;-78
2022/04/27 05:19:10;;;;;;;15.80;9.93;;;5.60;99.90;;;;;;4979179;28;20053;-78
2022/04/27 05:21:36;;;;;;;15.17;10.20;;;5.60;99.90;;;;;;4994886;28;20078;-78
2022/04/27 05:24:03;;;;;;;15.90;10.17;;;5.60;99.90;;;;;;4977818;28;20492;-78
2022/04/27 05:26:29;;;;;;;17.33;10.27;;;5.60;99.90;;;;;;4980170;28;20489;-78
2022/04/27 05:31:54;;;;;;;17.90;10.57;;;5.70;99.90;;;;;;4992893;28;20054;-78
2022/04/27 05:34:20;;;;;;;18.27;9.93;;;5.80;99.90;;;;;;4993760;28;20038;-79
2022/04/27 05:36:46;;;;;;;16.37;10.23;;;5.90;99.90;;;;;;4976109;28;20038;-79
2022/04/27 05:39:12;;;;;;;17.47;11.03;;;5.90;99.90;;;;;;4994948;28;20465;-79
2022/04/27 05:41:38;;;;;;;17.43;10.30;;;5.90;99.90;;;;;;4996023;28;20045;-81
2022/04/27 05:44:09;;;;;;;17.70;10.20;;;6.00;99.90;;;;;;5006875;28;20125;-82
2022/04/27 05:46:39;;;;;;;15.67;10.17;;;6.00;99.90;;;;;;4988238;28;20473;-82
2022/04/27 05:49:05;;;;;;;17.37;10.63;;;6.10;99.90;;;;;;4980893;28;20116;-81
2022/04/27 05:51:31;;;;;;;18.53;10.87;;;6.10;99.90;;;;;;5001022;28;20482;-79
2022/04/27 05:53:57;;;;;;;16.90;11.13;;;6.20;99.90;;;;;;4987989;28;20053;-78
2022/04/27 05:56:24;;;;;;;20.93;9.87;;;6.10;99.90;;;;;;4995832;28;20056;-78
2022/04/27 05:58:53;;;;;;;17.17;10.83;;;6.20;99.90;;;;;;4993944;28;20056;-78
2022/04/27 06:01:19;;;;;;;20.10;10.53;;;6.20;99.90;;;;;;5013908;28;20046;-78
2022/04/27 06:03:45;;;;;;;15.07;9.90;;;6.20;99.90;;;;;;5010575;28;20096;-78
2022/04/27 06:06:11;;;;;;;18.30;11.07;;;6.30;99.90;;;;;;5021726;28;20084;-78
2022/04/27 06:08:36;;;;;;;18.27;10.37;;;6.40;99.90;;;;;;4991639;28;20038;-82
2022/04/27 06:11:02;;;;;;;17.73;10.60;;;6.40;99.90;;;;;;5009789;28;20042;-81
2022/04/27 06:13:29;;;;;;;18.23;10.43;;;6.50;99.90;;;;;;5012459;28;20073;-82
2022/04/27 06:15:54;;;;;;;14.93;9.90;;;6.50;99.90;;;;;;5011164;28;20049;-81
2022/04/27 06:18:20;;;;;;;15.90;9.73;;;6.50;99.90;;;;;;4994588;28;20042;-78
2022/04/27 06:20:46;;;;;;;14.57;9.30;;;6.60;99.90;;;;;;4987260;28;20382;-78
2022/04/27 06:23:13;;;;;;;16.47;10.50;;;6.60;99.90;;;;;;4979105;28;20045;-78
2022/04/27 06:25:40;;;;;;;14.80;9.50;;;6.60;99.90;;;;;;4988608;28;20111;-78
2022/04/27 06:28:07;;;;;;;18.37;10.37;;;6.70;99.90;;;;;;4997048;28;20102;-78
2022/04/27 06:30:35;;;;;;;16.60;10.10;;;6.80;99.90;;;;;;5000516;28;20064;-79
2022/04/27 06:33:04;;;;;;;15.50;9.60;;;6.80;99.90;;;;;;5000501;28;20104;-79
2022/04/27 06:35:29;;;;;;;15.83;9.93;;;6.90;99.90;;;;;;5014346;28;20420;-79
2022/04/27 06:37:55;;;;;;;16.03;10.43;;;7.00;99.90;;;;;;4991723;28;20048;-79
2022/04/27 06:40:21;;;;;;;16.63;9.83;;;7.00;99.90;;;;;;4992583;28;20070;-78
2022/04/27 06:42:46;;;;;;;16.33;9.63;;;7.10;99.90;;;;;;5006738;28;20408;-79
2022/04/27 06:45:12;;;;;;;14.20;8.73;;;7.20;99.90;;;;;;4995325;28;20041;-78
2022/04/27 06:47:38;;;;;;;16.73;9.73;;;7.20;99.90;;;;;;5026778;28;20042;-79
2022/04/27 06:50:06;;;;;;;18.87;9.60;;;7.30;99.90;;;;;;5003997;28;20058;-79
2022/04/27 06:52:39;;;;;;;13.90;9.27;;;7.40;99.90;;;;;;4995332;28;20046;-78
2022/04/27 06:55:05;;;;;;;17.50;9.10;;;7.40;99.90;;;;;;4997301;28;20153;-78
2022/04/27 06:57:30;;;;;;;15.37;8.93;;;7.50;99.90;;;;;;5010247;28;20133;-79
2022/04/27 06:59:56;;;;;;;17.83;9.50;;;7.60;99.90;;;;;;5013209;28;20057;-78
2022/04/27 07:02:22;;;;;;;17.00;9.77;;;7.70;99.90;;;;;;4994678;28;20584;-78
2022/04/27 07:04:55;;;;;;;16.30;9.00;;;7.70;99.90;;;;;;4996855;28;20037;-79
2022/04/27 07:07:21;;;;;;;17.53;9.10;;;7.80;99.90;;;;;;4978345;28;20045;-78
2022/04/27 07:09:47;;;;;;;16.73;8.70;;;7.90;99.90;;;;;;4992117;28;20072;-78
2022/04/27 07:12:13;;;;;;;12.97;7.73;;;7.90;99.90;;;;;;5020130;28;20041;-79
2022/04/27 07:14:39;;;;;;;12.07;8.37;;;8.00;99.90;;;;;;5006882;28;20052;-79
2022/04/27 07:17:04;;;;;;;12.03;6.80;;;8.10;99.90;;;;;;4992964;28;20110;-78
2022/04/27 07:19:30;;;;;;;14.23;7.93;;;8.20;99.90;;;;;;5002020;28;20412;-79
2022/04/27 07:21:56;;;;;;;11.40;6.43;;;8.30;99.90;;;;;;5014293;28;20039;-79
2022/04/27 07:24:22;;;;;;;10.23;6.70;;;8.30;99.90;;;;;;5014172;28;20053;-77
2022/04/27 07:26:47;;;;;;;10.97;5.97;;;8.30;99.90;;;;;;4993193;28;20048;-78
2022/04/27 07:29:14;;;;;;;10.47;5.90;;;8.50;99.90;;;;;;4989717;28;20072;-78
2022/04/27 07:31:40;;;;;;;8.13;4.97;;;8.50;99.90;;;;;;5008665;28;20038;-78
2022/04/27 07:34:05;;;;;;;11.63;5.80;;;8.70;99.90;;;;;;4983008;28;20068;-78
2022/04/27 07:36:31;;;;;;;7.27;5.30;;;8.70;99.90;;;;;;5009017;28;20046;-79
2022/04/27 07:38:57;;;;;;;9.77;5.60;;;8.70;99.90;;;;;;5008981;28;20497;-79
2022/04/27 07:41:23;;;;;;;11.67;5.90;;;8.80;99.90;;;;;;4992524;28;20038;-78
2022/04/27 07:43:48;;;;;;;7.67;5.47;;;8.90;99.90;;;;;;4984854;28;20052;-79
2022/04/27 07:46:14;;;;;;;8.87;6.40;;;9.00;99.90;;;;;;4991786;28;20141;-78
2022/04/27 07:48:40;;;;;;;7.87;5.43;;;9.20;99.90;;;;;;4999160;28;20088;-79
2022/04/27 07:51:06;;;;;;;12.37;6.77;;;9.10;99.90;;;;;;5009353;28;20162;-79
2022/04/27 07:53:32;;;;;;;7.77;5.57;;;9.10;99.90;;;;;;4993117;28;20201;-79
2022/04/27 07:55:58;;;;;;;9.67;5.00;;;9.20;99.90;;;;;;4984509;28;20136;-78
2022/04/27 07:58:24;;;;;;;7.87;5.33;;;9.20;99.90;;;;;;4997832;28;20486;-79
2022/04/27 08:00:50;;;;;;;7.50;5.53;;;9.30;99.90;;;;;;5004382;28;20049;-79
2022/04/27 08:03:16;;;;;;;8.27;5.40;;;9.40;99.90;;;;;;4994403;28;20096;-78
2022/04/27 08:05:42;;;;;;;11.07;6.50;;;9.50;99.90;;;;;;5020090;28;20505;-79
2022/04/27 08:08:10;;;;;;;7.83;5.40;;;9.60;99.90;;;;;;4992307;28;20095;-78
2022/04/27 08:10:37;;;;;;;7.53;5.40;;;9.70;99.90;;;;;;4986798;28;20049;-79
2022/04/27 08:13:02;;;;;;;6.63;4.53;;;9.80;99.90;;;;;;4992654;28;20501;-79
2022/04/27 08:15:28;;;;;;;7.27;4.53;;;9.90;99.90;;;;;;4977459;28;20049;-79
2022/04/27 08:17:59;;;;;;;5.97;3.47;;;10.00;99.90;;;;;;4975537;28;20046;-79
2022/04/27 08:23:16;;;;;;;3.70;3.00;;;10.10;99.90;;;;;;4991831;28;20045;-79
2022/04/27 08:25:43;;;;;;;7.13;2.70;;;10.10;99.90;;;;;;5023917;28;20038;-79
2022/04/27 08:28:08;;;;;;;4.27;2.60;;;10.10;99.90;;;;;;4974472;28;20041;-79
2022/04/27 08:30:36;;;;;;;6.03;2.47;;;10.10;99.90;;;;;;4992041;28;20046;-79
2022/04/27 08:33:03;;;;;;;3.93;2.27;;;10.20;99.90;;;;;;5028154;28;20124;-79
2022/04/27 08:35:29;;;;;;;5.20;2.40;;;10.20;99.90;;;;;;5025709;28;20050;-79
2022/04/27 08:37:55;;;;;;;6.30;2.40;;;10.30;99.90;;;;;;5022779;28;20046;-78
2022/04/27 08:40:21;;;;;;;3.93;2.20;;;10.40;99.90;;;;;;4992882;28;20397;-79
2022/04/27 08:42:50;;;;;;;3.43;2.40;;;10.30;99.90;;;;;;5011167;28;20049;-79
2022/04/27 08:45:17;;;;;;;3.67;2.50;;;10.30;99.90;;;;;;4979439;28;20405;-78
2022/04/27 08:47:44;;;;;;;5.33;2.67;;;10.30;99.90;;;;;;4999046;28;20040;-78
2022/04/27 08:50:18;;;;;;;3.47;2.67;;;10.30;99.90;;;;;;5026677;28;20129;-79
2022/04/27 08:52:45;;;;;;;5.57;2.80;;;10.40;99.90;;;;;;5014677;28;20402;-79
2022/04/27 08:55:11;;;;;;;2.70;2.20;;;10.40;99.90;;;;;;5012703;28;20045;-79
2022/04/27 08:57:37;;;;;;;2.80;2.40;;;10.50;99.90;;;;;;5010144;28;20125;-79
2022/04/27 09:00:06;;;;;;;4.13;2.67;;;10.50;99.90;;;;;;4999097;28;20050;-78
2022/04/27 09:02:32;;;;;;;4.33;2.20;;;10.60;99.90;;;;;;5015848;28;20378;-79
2022/04/27 09:05:06;;;;;;;3.50;2.53;;;10.60;99.90;;;;;;5025414;28;20042;-78
2022/04/27 09:07:42;;;;;;;3.47;2.63;;;10.70;99.90;;;;;;5011661;28;20048;-78
2022/04/27 09:10:12;;;;;;;3.67;2.40;;;10.70;99.90;;;;;;4996069;28;20077;-78
2022/04/27 09:12:45;;;;;;;2.90;2.53;;;10.60;99.90;;;;;;5009357;28;20045;-78
2022/04/27 09:15:11;;;;;;;3.23;2.20;;;10.60;99.90;;;;;;4992686;28;20108;-79
2022/04/27 09:23:28;;;;;;;4.93;2.20;;;10.60;99.90;;;;;;5011507;28;20112;-79
2022/04/27 09:26:00;;;;;;;3.53;2.10;;;10.90;99.90;;;;;;5002000;28;20044;-79
2022/04/27 09:28:31;;;;;;;5.00;2.30;;;11.00;99.90;;;;;;4993291;28;20041;-78
2022/04/27 09:30:57;;;;;;;3.53;2.30;;;11.10;99.90;;;;;;5014555;28;20052;-78
2022/04/27 09:33:36;;;;;;;4.07;2.50;;;11.30;99.90;;;;;;5011356;28;20049;-79
2022/04/27 09:36:19;;;;;;;4.53;2.40;;;11.50;99.90;;;;;;4992896;28;20056;-79
2022/04/27 09:38:45;;;;;;;4.90;2.57;;;11.70;99.90;;;;;;4986031;28;20091;-79
2022/04/27 09:41:11;;;;;;;3.40;2.40;;;11.70;99.90;;;;;;4991139;28;20070;-78
2022/04/27 09:43:47;;;;;;;3.13;2.37;;;11.70;99.90;;;;;;4987401;28;20196;-79
2022/04/27 09:46:20;;;;;;;4.60;2.27;;;11.90;99.90;;;;;;5026475;28;20045;-79
2022/04/27 09:48:49;;;;;;;4.50;2.40;;;11.90;99.90;;;;;;5014272;28;20037;-78
2022/04/27 09:51:15;;;;;;;2.57;2.17;;;11.90;99.90;;;;;;4995305;28;20362;-79
2022/04/27 09:53:42;;;;;;;3.63;2.30;;;11.80;99.90;;;;;;5007855;28;20063;-78
2022/04/27 09:56:12;;;;;;;3.53;2.20;;;11.80;99.90;;;;;;4982864;28;20056;-78
2022/04/27 09:58:44;;;;;;;6.33;2.60;;;11.70;99.90;;;;;;4996885;28;20037;-78
2022/04/27 10:01:16;;;;;;;4.47;2.70;;;11.70;99.90;;;;;;5001428;28;20054;-79
2022/04/27 10:03:48;;;;;;;3.25;2.63;;;11.80;99.90;;;;;;4967381;28;20046;-78
2022/04/27 10:06:15;;;;;;;6.35;2.58;;;11.90;99.90;;;;;;5005057;28;20044;-78
2022/04/27 10:08:41;;;;;;;4.33;2.30;;;12.00;99.90;;;;;;5015480;28;20569;-78
2022/04/27 10:11:09;;;;;;;5.00;2.43;;;12.10;99.90;;;;;;4998895;28;20377;-78
2022/04/27 10:13:36;;;;;;;4.20;2.63;;;12.10;99.90;;;;;;4997412;28;20055;-78
2022/04/27 10:16:03;;;;;;;3.93;2.27;;;12.10;99.90;;;;;;5012583;28;20059;-79
2022/04/27 10:18:30;;;;;;;6.60;2.60;;;12.20;99.90;;;;;;4997704;28;20064;-78
2022/04/27 10:20:56;;;;;;;4.20;2.40;;;12.10;99.50;;;;;;4994334;28;20045;-79
2022/04/27 10:23:31;;;;;;;8.27;2.60;;;12.00;99.90;;;;;;4954493;28;20111;-79
2022/04/27 10:26:11;;;;;;;7.60;2.90;;;11.90;98.60;;;;;;4999103;28;20056;-79
2022/04/27 10:28:44;;;;;;;4.47;2.33;;;11.90;99.90;;;;;;4994407;28;20042;-79
2022/04/27 10:31:10;;;;;;;4.47;2.60;;;12.00;96.50;;;;;;4994335;28;20040;-79
2022/04/27 10:33:41;;;;;;;5.10;2.60;;;12.10;96.40;;;;;;4985272;28;20038;-79
2022/04/27 10:36:29;;;;;;;4.57;2.70;;;12.00;93.50;;;;;;4979345;28;20075;-76
2022/04/27 10:39:14;;;;;;;4.00;2.60;;;12.00;95.30;;;;;;4974486;28;20058;-79
2022/04/27 10:41:40;;;;;;;3.50;2.13;;;12.00;94.40;;;;;;5013665;28;20046;-77
2022/04/27 10:44:06;;;;;;;4.70;2.40;;;12.00;96.90;;;;;;4993244;28;20044;-77
2022/04/27 10:46:39;;;;;;;6.57;2.87;;;11.90;94.90;;;;;;5008214;28;20762;-81
2022/04/27 10:49:25;;;;;;;5.47;2.77;;;12.00;93.70;;;;;;5001126;28;20058;-82
2022/04/27 10:52:08;;;;;;;5.40;2.93;;;12.00;94.70;;;;;;5010323;28;20115;-79
2022/04/27 10:54:39;;;;;;;4.50;2.83;;;11.90;90.00;;;;;;5019948;28;20054;-83
2022/04/27 10:57:16;;;;;;;4.70;2.70;;;11.80;96.00;;;;;;5031149;28;20052;-82
2022/04/27 10:59:43;;;;;;;5.40;2.50;;;11.90;95.80;;;;;;4988605;28;20045;-80
2022/04/27 11:02:34;;;;;;;8.37;3.07;;;12.00;96.10;;;;;;4994635;28;20125;-80
2022/04/27 11:05:12;;;;;;;5.13;2.87;;;12.10;90.10;;;;;;5001879;28;20052;-79
2022/04/27 11:08:16;;;;;;;4.37;2.80;;;12.20;92.00;;;;;;4967763;28;20041;-81
2022/04/27 11:10:42;;;;;;;5.80;2.80;;;12.20;84.40;;;;;;4994072;28;20033;-81
2022/04/27 11:13:08;;;;;;;4.97;2.80;;;12.10;92.70;;;;;;5014560;28;20103;-79
2022/04/27 11:15:34;;;;;;;4.13;2.70;;;12.10;91.40;;;;;;4993572;28;20088;-80
2022/04/27 11:18:03;;;;;;;5.37;2.87;;;12.00;90.10;;;;;;4994902;28;20155;-80
2022/04/27 11:20:37;;;;;;;6.47;3.00;;;12.00;90.50;;;;;;5022523;28;20126;-80
2022/04/27 11:23:20;;;;;;;6.63;2.63;;;12.00;90.40;;;;;;5032046;28;20103;-81
2022/04/27 11:25:55;;;;;;;7.77;2.80;;;12.10;86.60;;;;;;4979212;28;20053;-82
2022/04/27 11:28:21;;;;;;;4.90;2.70;;;12.10;90.60;;;;;;4987443;28;20042;-78
2022/04/27 11:30:47;;;;;;;5.97;2.80;;;12.10;93.40;;;;;;4990976;28;20074;-78
2022/04/27 11:33:16;;;;;;;5.90;3.00;;;12.10;94.20;;;;;;5012475;28;20481;-78
2022/04/27 11:35:47;;;;;;;6.77;3.20;;;12.00;94.40;;;;;;5004082;28;20103;-78
2022/04/27 11:38:21;;;;;;;6.97;2.87;;;11.80;91.20;;;;;;4974029;28;20104;-78
2022/04/27 11:40:51;;;;;;;6.67;3.77;;;11.80;92.60;;;;;;5025034;28;20041;-78
2022/04/27 11:43:32;;;;;;;6.17;3.57;;;11.70;93.20;;;;;;5020634;28;20045;-78
2022/04/27 11:45:58;;;;;;;4.43;3.13;;;11.70;93.70;;;;;;5007689;28;20048;-78
2022/04/27 11:48:28;;;;;;;6.37;3.80;;;11.80;94.40;;;;;;4996424;28;20401;-78
2022/04/27 11:50:57;;;;;;;6.87;3.37;;;11.90;93.40;;;;;;5009178;28;20498;-78
2022/04/27 11:53:23;;;;;;;8.13;3.60;;;12.00;97.40;;;;;;5007484;28;20045;-78
2022/04/27 11:55:51;;;;;;;5.10;3.37;;;12.00;98.00;;;;;;4990522;28;20439;-79
2022/04/27 11:58:25;;;;;;;6.07;3.90;;;12.10;97.90;;;;;;5020290;28;20052;-78
2022/04/27 12:00:58;;;;;;;4.83;3.50;;;12.10;97.90;;;;;;5017288;28;20049;-78
2022/04/27 12:03:30;;;;;;;8.53;4.40;;;12.10;94.00;;;;;;5016348;28;20038;-78
2022/04/27 12:05:55;;;;;;;6.68;3.80;;;12.10;96.20;;;;;;5015564;28;20389;-78
2022/04/27 12:08:23;;;;;;;7.40;4.20;;;12.10;99.90;;;;;;4994417;28;20034;-78
2022/04/27 12:10:49;;;;;;;6.60;3.67;;;12.00;99.60;;;;;;4998745;28;20159;-78
2022/04/27 12:13:20;;;;;;;11.17;4.47;;;12.00;99.90;;;;;;5029287;28;20413;-79
2022/04/27 12:15:50;;;;;;;11.23;4.07;;;12.00;99.90;;;;;;5019505;28;20049;-78
2022/04/27 12:18:16;;;;;;;8.03;3.93;;;12.10;99.90;;;;;;5005402;28;20673;-78
2022/04/27 12:20:48;;;;;;;7.83;3.97;;;12.10;99.90;;;;;;4971278;28;20099;-78
2022/04/27 12:23:20;;;;;;;10.50;3.88;;;12.00;99.90;;;;;;5007398;28;20132;-78
2022/04/27 12:25:59;;;;;;;10.38;4.15;;;12.10;99.90;;;;;;5009061;28;20038;-78
2022/04/27 12:28:32;;;;;;;9.10;4.23;;;12.10;99.90;;;;;;5009701;28;20049;-78
2022/04/27 12:31:00;;;;;;;8.87;4.00;;;12.10;99.90;;;;;;4995855;28;20556;-78
2022/04/27 12:33:45;;;;;;;9.07;3.90;;;12.10;99.90;;;;;;4977839;28;20037;-78
2022/04/27 12:39:09;;;;;;;10.00;4.30;;;12.20;99.90;;;;;;5009147;28;20450;-78
2022/04/27 12:41:43;;;;;;;13.67;4.23;;;12.20;99.90;;;;;;4995838;28;20442;-79
2022/04/27 12:44:15;;;;;;;9.17;4.17;;;12.20;99.90;;;;;;5026397;28;20553;-79
2022/04/27 12:47:00;;;;;;;;;;;12.10;99.90;;;;;;4990874;28;20037;-78
2022/04/27 12:49:27;;;;;;;10.07;4.00;;;12.00;99.90;;;;;;5006237;28;19921;-78
2022/04/27 12:51:54;;;;;;;11.23;4.03;;;11.90;99.90;;;;;;5010174;28;21392;-78
2022/04/27 12:54:30;;;;;;;12.43;3.97;;;11.90;99.90;;;;;;4987258;28;20056;-78
2022/04/27 12:57:00;;;;;;;8.17;3.70;;;11.90;99.90;;;;;;5028345;28;20711;-78
2022/04/27 12:59:25;;;;;;;7.30;3.50;;;11.80;99.90;;;;;;5027175;28;20104;-78
2022/04/27 13:02:00;;;;;;;10.60;4.00;;;11.90;99.90;;;;;;5009842;28;20429;-77
2022/04/27 13:04:25;;;;;;;7.93;3.67;;;12.00;99.90;;;;;;4993457;28;20042;-78
2022/04/27 13:06:51;;;;;;;7.57;3.67;;;12.00;99.90;;;;;;4972739;28;20378;-78
2022/04/27 13:12:01;;;;;;;10.63;3.60;;;11.90;99.90;;;;;;4995750;28;20051;-78
2022/04/27 13:14:28;;;;;;;9.37;3.80;;;11.80;99.90;;;;;;5009531;28;20060;-78
2022/04/27 13:16:54;;;;;;;9.00;3.87;;;11.90;99.90;;;;;;5019004;28;20042;-78
2022/04/27 13:19:21;;;;;;;7.20;3.63;;;11.80;99.90;;;;;;4986884;28;20563;-78